createdAt,value
2018-03-30T00:01:39.352Z,14.97
2018-03-30T00:04:06.405Z,14.23
2018-03-30T00:06:33.450Z,13.97
2018-03-30T00:09:01.322Z,14.13
2018-03-30T00:11:28.365Z,14.40
2018-03-30T00:13:55.414Z,12.97
2018-03-30T00:16:22.565Z,12.73
2018-03-30T00:18:49.617Z,12.63
2018-03-30T00:21:17.171Z,12.33
2018-03-30T00:23:44.226Z,11.40
2018-03-30T00:26:11.270Z,12.00
2018-03-30T00:28:38.320Z,10.83
2018-03-30T00:31:06.494Z,11.13
2018-03-30T00:33:33.542Z,12.13
2018-03-30T00:36:01.922Z,11.17
2018-03-30T00:38:28.976Z,11.43
2018-03-30T00:40:56.019Z,11.00
2018-03-30T00:43:23.067Z,11.43
2018-03-30T00:45:50.218Z,11.67
2018-03-30T00:48:17.276Z,10.70
2018-03-30T00:50:44.317Z,11.80
2018-03-30T00:53:17.303Z,10.23
2018-03-30T00:55:44.763Z,11.10
2018-03-30T00:58:11.809Z,10.40
2018-03-30T01:00:39.786Z,9.80
2018-03-30T01:03:06.830Z,10.70
2018-03-30T01:05:34.295Z,10.47
2018-03-30T01:08:01.335Z,9.90
2018-03-30T01:10:28.392Z,10.80
2018-03-30T01:12:55.948Z,9.93
2018-03-30T01:15:23.000Z,9.73
2018-03-30T01:17:50.042Z,10.03
2018-03-30T01:20:17.092Z,10.00
2018-03-30T01:22:47.146Z,9.83
2018-03-30T01:25:14.259Z,9.83
2018-03-30T01:27:45.560Z,12.20
2018-03-30T01:30:13.913Z,11.00
2018-03-30T01:32:41.823Z,10.50
2018-03-30T01:35:10.442Z,11.30
2018-03-30T01:37:39.523Z,9.60
2018-03-30T01:40:23.583Z,10.60
2018-03-30T01:43:09.134Z,9.17
2018-03-30T01:45:36.117Z,9.90
2018-03-30T01:48:06.956Z,9.70
2018-03-30T01:50:33.949Z,10.80
2018-03-30T01:53:02.072Z,10.53
2018-03-30T01:55:29.119Z,10.33
2018-03-30T01:57:56.376Z,9.67
2018-03-30T02:00:23.422Z,10.43
2018-03-30T02:02:50.478Z,10.97
2018-03-30T02:05:18.132Z,10.63
2018-03-30T02:07:45.489Z,10.90
2018-03-30T02:10:12.542Z,10.10
2018-03-30T02:12:39.586Z,10.73
2018-03-30T02:15:06.586Z,11.07
2018-03-30T02:17:33.940Z,12.80
2018-03-30T02:20:01.079Z,13.63
2018-03-30T02:22:28.912Z,15.13
2018-03-30T02:24:55.899Z,14.40
2018-03-30T02:27:22.906Z,14.47
2018-03-30T02:29:49.952Z,12.77
2018-03-30T02:32:17.516Z,14.23
2018-03-30T02:34:44.560Z,14.40
2018-03-30T02:37:11.606Z,14.40
2018-03-30T02:39:38.663Z,16.27
2018-03-30T02:42:05.704Z,14.77
2018-03-30T02:44:32.752Z,15.40
2018-03-30T02:46:59.808Z,14.10
2018-03-30T02:49:27.776Z,15.20
2018-03-30T02:51:54.820Z,13.57
2018-03-30T02:54:21.771Z,15.73
2018-03-30T02:56:48.816Z,14.77
2018-03-30T02:59:15.868Z,16.97
2018-03-30T03:01:42.911Z,15.20
2018-03-30T03:04:09.962Z,16.30
2018-03-30T03:06:37.021Z,15.37
2018-03-30T03:09:04.204Z,14.63
2018-03-30T03:11:31.515Z,16.97
2018-03-30T03:13:58.510Z,17.43
2018-03-30T03:16:25.510Z,16.67
2018-03-30T03:18:53.694Z,19.90
2018-03-30T03:21:20.732Z,13.03
2018-03-30T03:23:47.684Z,14.80
2018-03-30T03:26:14.624Z,15.80
2018-03-30T03:28:41.570Z,17.60
2018-03-30T03:31:08.559Z,16.37
2018-03-30T03:33:36.351Z,13.57
2018-03-30T03:36:03.332Z,16.97
2018-03-30T03:38:30.379Z,13.67
2018-03-30T03:40:57.434Z,14.23
2018-03-30T03:43:24.475Z,16.17
2018-03-30T03:45:51.525Z,11.60
2018-03-30T03:48:18.516Z,15.57
2018-03-30T03:50:45.518Z,16.10
2018-03-30T03:53:12.466Z,8.17
2018-03-30T03:55:39.513Z,14.50
2018-03-30T03:58:06.568Z,15.83
2018-03-30T04:00:33.610Z,12.57
2018-03-30T04:03:00.562Z,17.80
2018-03-30T04:05:27.610Z,14.43
2018-03-30T04:07:54.559Z,16.43
2018-03-30T04:10:21.602Z,11.80
2018-03-30T04:12:48.650Z,17.73
2018-03-30T04:15:15.702Z,17.07
2018-03-30T04:17:42.748Z,15.70
2018-03-30T04:20:09.795Z,14.77
2018-03-30T04:22:36.945Z,13.97
2018-03-30T04:25:04.019Z,15.07
2018-03-30T04:27:31.042Z,16.97
2018-03-30T04:29:59.222Z,15.77
2018-03-30T04:32:26.266Z,16.00
2018-03-30T04:34:54.338Z,14.10
2018-03-30T04:37:21.387Z,14.13
2018-03-30T04:39:48.440Z,15.40
2018-03-30T04:42:15.898Z,14.60
2018-03-30T04:44:42.942Z,14.00
2018-03-30T04:47:10.912Z,14.53
2018-03-30T04:49:40.463Z,14.50
2018-03-30T04:52:07.467Z,13.53
2018-03-30T04:54:34.420Z,13.47
2018-03-30T04:57:02.280Z,12.50
2018-03-30T04:59:29.433Z,13.30
2018-03-30T05:01:56.569Z,11.87
2018-03-30T05:04:23.638Z,13.43
2018-03-30T05:07:13.303Z,16.03
2018-03-30T05:09:59.192Z,14.67
2018-03-30T05:12:44.662Z,22.33
2018-03-30T05:15:33.829Z,33.30
2018-03-30T05:18:18.834Z,15.13
2018-03-30T05:21:03.854Z,13.97
2018-03-30T05:23:52.049Z,12.53
2018-03-30T05:26:19.084Z,12.90
2018-03-30T05:28:46.851Z,14.27
2018-03-30T05:31:14.001Z,16.13
2018-03-30T05:33:41.047Z,12.77
2018-03-30T05:36:07.998Z,12.73
2018-03-30T05:38:35.039Z,12.80
2018-03-30T05:41:02.088Z,12.47
2018-03-30T05:43:29.141Z,13.57
2018-03-30T05:45:56.430Z,13.00
2018-03-30T05:48:23.446Z,13.67
2018-03-30T05:50:50.486Z,13.20
2018-03-30T05:53:18.459Z,12.30
2018-03-30T05:55:45.515Z,11.13
2018-03-30T05:58:12.560Z,10.53
2018-03-30T06:00:39.602Z,11.37
2018-03-30T06:03:06.595Z,12.27
2018-03-30T06:05:34.422Z,9.93
2018-03-30T06:08:01.464Z,10.90
2018-03-30T06:10:28.416Z,9.57
2018-03-30T06:12:55.459Z,11.47
2018-03-30T06:15:22.507Z,12.87
2018-03-30T06:17:50.580Z,11.87
2018-03-30T06:20:17.633Z,12.23
2018-03-30T06:22:44.678Z,10.97
2018-03-30T06:25:11.726Z,12.17
2018-03-30T06:27:38.781Z,11.13
2018-03-30T06:30:05.823Z,9.83
2018-03-30T06:32:32.872Z,11.00
2018-03-30T06:34:59.925Z,11.80
2018-03-30T06:37:27.128Z,9.63
2018-03-30T06:39:54.124Z,12.17
2018-03-30T06:42:21.069Z,12.47
2018-03-30T06:44:48.837Z,11.63
2018-03-30T06:47:15.879Z,10.83
2018-03-30T06:49:42.926Z,11.87
2018-03-30T06:52:10.901Z,11.20
2018-03-30T06:54:37.946Z,12.40
2018-03-30T06:57:04.997Z,11.43
2018-03-30T06:59:32.971Z,12.37
2018-03-30T07:02:00.018Z,11.33
2018-03-30T07:04:32.737Z,12.43
2018-03-30T07:07:00.153Z,11.53
2018-03-30T07:09:27.511Z,12.47
2018-03-30T07:11:54.568Z,8.70
2018-03-30T07:14:21.604Z,11.40
2018-03-30T07:16:48.651Z,11.40
2018-03-30T07:19:15.710Z,10.63
2018-03-30T07:21:43.876Z,11.30
2018-03-30T07:24:10.935Z,13.00
2018-03-30T07:26:37.973Z,11.60
2018-03-30T07:29:04.959Z,12.70
2018-03-30T07:31:31.966Z,10.77
2018-03-30T07:33:59.017Z,11.47
2018-03-30T07:36:26.070Z,12.10
2018-03-30T07:38:53.113Z,10.33
2018-03-30T07:41:20.162Z,10.23
2018-03-30T07:43:47.214Z,9.50
2018-03-30T07:46:14.202Z,9.87
2018-03-30T07:48:41.211Z,7.77
2018-03-30T07:51:08.253Z,10.77
2018-03-30T07:53:35.301Z,11.57
2018-03-30T07:56:02.356Z,10.70
2018-03-30T07:58:29.506Z,10.93
2018-03-30T08:00:57.932Z,8.17
2018-03-30T08:03:25.040Z,10.73
2018-03-30T08:05:52.389Z,11.47
2018-03-30T08:08:20.461Z,4.67
2018-03-30T08:10:47.509Z,7.00
2018-03-30T08:13:14.564Z,5.43
2018-03-30T08:15:42.732Z,7.43
2018-03-30T08:18:09.882Z,11.00
2018-03-30T08:20:37.244Z,9.70
2018-03-30T08:23:04.287Z,4.67
2018-03-30T08:25:31.335Z,9.90
2018-03-30T08:27:59.407Z,4.73
2018-03-30T08:30:26.462Z,3.77
2018-03-30T08:32:53.613Z,4.90
2018-03-30T08:35:20.762Z,7.27
2018-03-30T08:37:47.808Z,4.77
2018-03-30T08:40:14.855Z,6.23
2018-03-30T08:42:41.909Z,6.77
2018-03-30T08:45:08.952Z,4.97
2018-03-30T08:47:36.216Z,6.10
2018-03-30T08:50:04.535Z,9.53
2018-03-30T08:52:32.459Z,9.30
2018-03-30T08:54:59.603Z,9.87
2018-03-30T08:57:26.658Z,7.80
2018-03-30T08:59:53.808Z,7.73
2018-03-30T09:02:21.063Z,5.20
2018-03-30T09:04:48.110Z,6.33
2018-03-30T09:07:16.075Z,10.13
2018-03-30T09:09:43.125Z,8.77
2018-03-30T09:12:10.183Z,7.93
2018-03-30T09:14:37.222Z,8.03
2018-03-30T09:17:04.270Z,5.93
2018-03-30T09:19:31.323Z,7.13
2018-03-30T09:21:58.370Z,4.77
2018-03-30T09:24:25.415Z,9.00
2018-03-30T09:26:52.471Z,5.37
2018-03-30T09:29:19.512Z,5.47
2018-03-30T09:31:46.507Z,9.57
2018-03-30T09:34:13.925Z,8.00
2018-03-30T09:36:41.578Z,4.70
2018-03-30T09:39:08.578Z,6.43
2018-03-30T09:41:37.396Z,9.23
2018-03-30T09:44:06.437Z,3.80
2018-03-30T09:46:35.798Z,7.67
2018-03-30T09:49:04.586Z,5.73
2018-03-30T09:51:33.244Z,7.00
2018-03-30T09:54:03.049Z,8.40
2018-03-30T09:56:31.993Z,8.00
2018-03-30T09:59:00.918Z,5.07
2018-03-30T10:01:31.190Z,4.73
2018-03-30T10:04:00.129Z,7.53
2018-03-30T10:06:30.580Z,8.30
2018-03-30T10:09:00.354Z,9.60
2018-03-30T10:11:30.499Z,7.30
2018-03-30T10:14:01.283Z,9.73
2018-03-30T10:16:31.716Z,9.43
2018-03-30T10:19:01.821Z,8.77
2018-03-30T10:21:31.914Z,8.27
2018-03-30T10:24:01.460Z,6.93
2018-03-30T10:26:31.760Z,8.00
2018-03-30T10:29:01.358Z,8.60
2018-03-30T10:31:30.884Z,7.43
2018-03-30T10:34:00.246Z,6.37
2018-03-30T10:36:29.533Z,3.93
2018-03-30T10:38:58.990Z,7.17
2018-03-30T10:41:28.075Z,5.60
2018-03-30T10:43:56.911Z,7.20
2018-03-30T10:46:25.951Z,7.37
2018-03-30T10:48:55.861Z,9.20
2018-03-30T10:51:28.369Z,8.33
2018-03-30T10:53:57.634Z,6.83
2018-03-30T10:56:26.301Z,6.73
2018-03-30T10:58:55.455Z,6.97
2018-03-30T11:01:22.439Z,5.13
2018-03-30T11:03:50.239Z,9.87
2018-03-30T11:06:17.247Z,7.27
2018-03-30T11:08:44.295Z,9.03
2018-03-30T11:11:11.446Z,9.10
2018-03-30T11:13:38.597Z,10.47
2018-03-30T11:16:05.651Z,8.80
2018-03-30T11:18:32.693Z,8.33
2018-03-30T11:20:59.743Z,6.47
2018-03-30T11:23:26.796Z,7.13
2018-03-30T11:25:53.839Z,7.40
2018-03-30T11:28:21.713Z,7.83
2018-03-30T11:30:48.754Z,6.73
2018-03-30T11:33:17.508Z,6.10
2018-03-30T11:35:44.491Z,4.73
2018-03-30T11:38:11.546Z,7.93
2018-03-30T11:40:38.588Z,5.53
2018-03-30T11:43:05.637Z,7.73
2018-03-30T11:45:33.919Z,6.50
2018-03-30T11:48:00.966Z,6.90
2018-03-30T11:50:28.080Z,6.77
2018-03-30T11:52:56.705Z,6.03
2018-03-30T11:55:23.754Z,8.73
2018-03-30T11:57:50.796Z,8.23
2018-03-30T12:00:18.457Z,7.87
2018-03-30T12:02:45.610Z,6.27
2018-03-30T12:05:12.664Z,6.83
2018-03-30T12:07:40.219Z,5.93
2018-03-30T12:10:07.271Z,5.60
2018-03-30T12:12:34.316Z,8.73
2018-03-30T12:15:01.774Z,8.10
2018-03-30T12:17:28.822Z,3.53
2018-03-30T12:19:56.690Z,4.90
2018-03-30T12:22:24.661Z,8.37
2018-03-30T12:24:51.715Z,8.50
2018-03-30T12:27:18.757Z,6.00
2018-03-30T12:29:45.807Z,7.53
2018-03-30T12:32:14.407Z,6.30
2018-03-30T12:34:41.440Z,5.77
2018-03-30T12:37:10.234Z,7.97
2018-03-30T12:39:37.483Z,5.23
2018-03-30T12:42:05.267Z,8.10
2018-03-30T12:44:32.300Z,6.27
2018-03-30T12:47:00.766Z,5.80
2018-03-30T12:49:28.143Z,7.20
2018-03-30T12:51:56.005Z,8.07
2018-03-30T12:54:23.044Z,4.17
2018-03-30T12:56:50.924Z,4.70
2018-03-30T12:59:17.976Z,5.47
2018-03-30T13:01:45.840Z,7.10
2018-03-30T13:04:12.782Z,7.97
2018-03-30T13:06:41.110Z,7.30
2018-03-30T13:09:08.114Z,7.20
2018-03-30T13:11:35.262Z,4.57
2018-03-30T13:14:02.512Z,5.07
2018-03-30T13:16:29.662Z,4.93
2018-03-30T13:18:56.608Z,8.00
2018-03-30T13:21:23.656Z,5.40
2018-03-30T13:23:50.958Z,4.50
2018-03-30T13:26:17.960Z,6.17
2018-03-30T13:28:45.013Z,5.87
2018-03-30T13:31:12.568Z,8.27
2018-03-30T13:33:39.622Z,5.13
2018-03-30T13:36:06.612Z,5.03
2018-03-30T13:38:33.617Z,5.20
2018-03-30T13:41:00.659Z,4.30
2018-03-30T13:43:27.709Z,6.03
2018-03-30T13:45:57.834Z,7.57
2018-03-30T13:48:25.798Z,7.10
2018-03-30T13:51:03.032Z,4.23
2018-03-30T13:53:43.864Z,7.97
2018-03-30T13:56:11.970Z,6.90
2018-03-30T13:58:40.972Z,5.20
2018-03-30T14:01:10.432Z,4.87
2018-03-30T14:03:48.845Z,5.10
2018-03-30T14:06:30.436Z,4.60
2018-03-30T14:09:12.641Z,4.53
2018-03-30T14:11:39.726Z,3.57
2018-03-30T14:14:07.712Z,4.60
2018-03-30T14:16:35.627Z,4.87
2018-03-30T14:19:05.288Z,6.43
2018-03-30T14:21:40.049Z,5.53
2018-03-30T14:24:08.878Z,5.23
2018-03-30T14:26:37.039Z,7.57
2018-03-30T14:29:07.829Z,5.40
2018-03-30T14:31:35.431Z,3.70
2018-03-30T14:34:02.489Z,5.53
2018-03-30T14:36:29.636Z,5.23
2018-03-30T14:39:13.376Z,4.50
2018-03-30T14:41:40.422Z,5.23
2018-03-30T14:44:08.493Z,6.97
2018-03-30T14:46:39.535Z,4.90
2018-03-30T14:49:09.353Z,5.57
2018-03-30T14:51:39.366Z,3.83
2018-03-30T14:54:07.233Z,4.87
2018-03-30T14:56:49.951Z,4.80
2018-03-30T14:59:17.819Z,4.80
2018-03-30T15:02:02.894Z,5.40
2018-03-30T15:04:45.715Z,8.47
2018-03-30T15:07:13.370Z,6.00
2018-03-30T15:09:43.392Z,7.03
2018-03-30T15:12:27.232Z,6.40
2018-03-30T15:14:57.357Z,6.00
2018-03-30T15:17:43.161Z,4.90
2018-03-30T15:20:17.362Z,5.27
2018-03-30T15:22:46.151Z,6.30
2018-03-30T15:25:14.116Z,4.33
2018-03-30T15:27:43.528Z,5.37
2018-03-30T15:30:11.167Z,6.43
2018-03-30T15:32:56.970Z,5.23
2018-03-30T15:35:24.024Z,4.47
2018-03-30T15:37:51.069Z,3.43
2018-03-30T15:40:25.270Z,4.87
2018-03-30T15:42:56.153Z,4.87
2018-03-30T15:45:26.659Z,5.53
2018-03-30T15:47:56.725Z,4.67
2018-03-30T15:50:25.683Z,5.90
2018-03-30T15:52:54.974Z,3.53
2018-03-30T15:55:24.489Z,6.63
2018-03-30T15:57:53.109Z,7.17
2018-03-30T16:00:20.663Z,4.50
2018-03-30T16:02:47.673Z,5.30
2018-03-30T16:05:14.656Z,5.83
2018-03-30T16:07:41.677Z,7.27
2018-03-30T16:10:09.785Z,5.60
2018-03-30T16:12:36.884Z,5.63
2018-03-30T16:15:05.060Z,5.00
2018-03-30T16:17:32.108Z,6.73
2018-03-30T16:19:58.855Z,6.03
2018-03-30T16:22:25.698Z,4.50
2018-03-30T16:24:52.434Z,6.90
2018-03-30T16:27:20.198Z,5.50
2018-03-30T16:29:46.941Z,5.60
2018-03-30T16:32:13.687Z,5.07
2018-03-30T16:34:40.427Z,6.00
2018-03-30T16:37:10.648Z,6.07
2018-03-30T16:39:37.388Z,5.83
2018-03-30T16:42:04.641Z,4.97
2018-03-30T16:44:31.487Z,4.87
2018-03-30T16:46:58.226Z,7.23
2018-03-30T16:49:24.980Z,7.63
2018-03-30T16:51:51.817Z,7.33
2018-03-30T16:54:18.553Z,3.40
2018-03-30T16:56:45.705Z,5.63
2018-03-30T16:59:15.181Z,5.03
2018-03-30T17:01:42.156Z,6.77
2018-03-30T17:04:09.924Z,6.70
2018-03-30T17:06:36.662Z,4.97
2018-03-30T17:09:03.507Z,6.07
2018-03-30T17:11:30.965Z,7.23
2018-03-30T17:13:57.809Z,7.17
2018-03-30T17:16:24.959Z,4.00
2018-03-30T17:18:52.321Z,5.07
2018-03-30T17:21:19.014Z,4.77
2018-03-30T17:23:45.799Z,5.77
2018-03-30T17:26:13.667Z,4.50
2018-03-30T17:28:40.407Z,4.30
2018-03-30T17:31:07.560Z,5.87
2018-03-30T17:33:35.229Z,6.13
2018-03-30T17:36:04.011Z,5.47
2018-03-30T17:38:31.005Z,6.53
2018-03-30T17:40:57.754Z,5.63
2018-03-30T17:43:24.543Z,4.70
2018-03-30T17:45:51.948Z,5.27
2018-03-30T17:48:20.284Z,4.07
2018-03-30T17:50:48.247Z,6.23
2018-03-30T17:53:14.927Z,6.63
2018-03-30T17:55:42.550Z,9.03
2018-03-30T17:58:09.394Z,4.87
2018-03-30T18:00:36.134Z,8.80
2018-03-30T18:03:03.081Z,5.97
2018-03-30T18:05:29.822Z,6.60
2018-03-30T18:07:57.285Z,8.40
2018-03-30T18:10:24.226Z,7.83
2018-03-30T18:12:50.968Z,5.20
2018-03-30T18:15:19.044Z,5.40
2018-03-30T18:17:45.883Z,6.07
2018-03-30T18:20:13.860Z,6.67
2018-03-30T18:22:40.595Z,5.00
2018-03-30T18:25:07.440Z,5.90
2018-03-30T18:27:34.698Z,5.57
2018-03-30T18:30:04.215Z,5.40
2018-03-30T18:32:30.983Z,5.60
2018-03-30T18:35:01.402Z,5.67
2018-03-30T18:37:28.218Z,5.13
2018-03-30T18:39:58.115Z,7.70
2018-03-30T18:42:24.979Z,6.67
2018-03-30T18:44:52.361Z,7.37
2018-03-30T18:47:19.175Z,5.33
2018-03-30T18:49:45.918Z,5.80
2018-03-30T18:52:15.733Z,4.60
2018-03-30T18:54:42.468Z,4.80
2018-03-30T18:57:09.311Z,4.53
2018-03-30T18:59:36.053Z,5.90
2018-03-30T19:02:03.612Z,5.30
2018-03-30T19:04:30.765Z,6.33
2018-03-30T19:06:59.868Z,6.37
2018-03-30T19:09:26.805Z,5.40
2018-03-30T19:11:53.554Z,5.57
2018-03-30T19:14:20.317Z,6.57
2018-03-30T19:16:48.163Z,7.87
2018-03-30T19:19:14.845Z,5.37
2018-03-30T19:21:41.641Z,6.50
2018-03-30T19:24:08.485Z,7.30
2018-03-30T19:26:35.328Z,4.00
2018-03-30T19:29:02.275Z,5.40
2018-03-30T19:31:29.118Z,6.33
2018-03-30T19:34:00.583Z,6.10
2018-03-30T19:36:27.720Z,5.90
2018-03-30T19:38:55.691Z,5.33
2018-03-30T19:41:22.535Z,5.40
2018-03-30T19:43:49.686Z,6.83
2018-03-30T19:46:16.432Z,6.53
2018-03-30T19:48:44.669Z,5.93
2018-03-30T19:51:12.164Z,5.87
2018-03-30T19:53:40.281Z,5.17
2018-03-30T19:56:07.387Z,6.37
2018-03-30T19:58:34.229Z,5.90
2018-03-30T20:01:01.893Z,7.77
2018-03-30T20:03:29.453Z,6.37
2018-03-30T20:05:57.547Z,6.00
2018-03-30T20:08:24.369Z,7.20
2018-03-30T20:10:51.214Z,6.03
2018-03-30T20:13:19.236Z,6.27
2018-03-30T20:15:46.129Z,6.50
2018-03-30T20:18:12.870Z,4.87
2018-03-30T20:20:39.714Z,4.73
2018-03-30T20:23:06.493Z,6.27
2018-03-30T20:25:33.305Z,5.87
2018-03-30T20:28:01.177Z,7.03
2018-03-30T20:30:29.714Z,6.33
2018-03-30T20:32:58.831Z,7.67
2018-03-30T20:35:27.341Z,5.03
2018-03-30T20:37:59.204Z,7.17
2018-03-30T20:40:28.283Z,8.10
2018-03-30T20:42:59.305Z,7.53
2018-03-30T20:45:29.016Z,6.50
2018-03-30T20:48:05.584Z,9.30
2018-03-30T20:50:35.416Z,10.27
2018-03-30T20:53:07.220Z,6.40
2018-03-30T20:55:36.624Z,5.50
2018-03-30T20:58:05.475Z,9.10
2018-03-30T21:00:34.646Z,9.87
2018-03-30T21:03:04.723Z,6.77
2018-03-30T21:05:33.827Z,7.80
2018-03-30T21:08:04.880Z,7.80
2018-03-30T21:10:33.864Z,9.13
2018-03-30T21:13:02.813Z,10.27
2018-03-30T21:15:31.543Z,10.93
2018-03-30T21:18:01.423Z,10.57
2018-03-30T21:20:30.200Z,10.43
2018-03-30T21:23:00.524Z,11.20
2018-03-30T21:25:29.627Z,9.00
2018-03-30T21:28:00.979Z,11.23
2018-03-30T21:30:29.924Z,10.83
2018-03-30T21:32:59.439Z,10.87
2018-03-30T21:35:28.838Z,11.63
2018-03-30T21:37:59.456Z,10.03
2018-03-30T21:40:27.630Z,9.87
2018-03-30T21:42:54.446Z,9.63
2018-03-30T21:45:21.293Z,10.77
2018-03-30T21:47:48.788Z,10.37
2018-03-30T21:50:15.587Z,9.73
2018-03-30T21:52:43.463Z,10.17
2018-03-30T21:55:10.198Z,8.93
2018-03-30T21:57:38.269Z,9.20
2018-03-30T22:00:05.882Z,9.90
2018-03-30T22:02:34.004Z,9.57
2018-03-30T22:05:00.848Z,9.43
2018-03-30T22:07:27.595Z,9.27
2018-03-30T22:09:54.332Z,8.77
2018-03-30T22:12:21.074Z,8.70
2018-03-30T22:14:47.917Z,9.50
2018-03-30T22:17:15.476Z,9.30
2018-03-30T22:19:42.219Z,8.87
2018-03-30T22:22:09.061Z,10.30
2018-03-30T22:24:35.912Z,9.40
2018-03-30T22:27:03.881Z,8.67
2018-03-30T22:29:30.616Z,8.53
2018-03-30T22:31:57.666Z,9.20
2018-03-30T22:34:24.411Z,9.60
2018-03-30T22:36:51.256Z,10.73
2018-03-30T22:39:18.099Z,8.67
2018-03-30T22:41:46.064Z,9.93
2018-03-30T22:44:14.443Z,9.17
2018-03-30T22:46:41.186Z,9.23
2018-03-30T22:49:10.100Z,9.13
2018-03-30T22:51:37.330Z,8.47
2018-03-30T22:56:49.811Z,8.83
2018-03-30T22:59:16.600Z,7.73
2018-03-30T23:01:43.347Z,11.33
2018-03-30T23:04:11.419Z,10.63
2018-03-30T23:06:38.156Z,9.13
2018-03-30T23:09:05.000Z,9.37
2018-03-30T23:11:31.842Z,10.03
2018-03-30T23:13:58.584Z,9.20
2018-03-30T23:16:25.336Z,9.13
2018-03-30T23:18:52.105Z,7.90
2018-03-30T23:21:19.055Z,7.70
2018-03-30T23:23:45.861Z,7.63
2018-03-30T23:26:12.638Z,8.97
2018-03-30T23:28:39.646Z,8.00
2018-03-30T23:31:07.660Z,7.00
2018-03-30T23:33:34.665Z,6.47
2018-03-30T23:36:01.511Z,5.67
2018-03-30T23:38:28.251Z,6.93
2018-03-30T23:40:55.009Z,6.00
2018-03-30T23:43:23.171Z,5.63
2018-03-30T23:45:49.916Z,6.20
2018-03-30T23:48:18.801Z,3.93
2018-03-30T23:50:45.752Z,6.13
2018-03-30T23:53:12.488Z,6.10
2018-03-30T23:55:39.746Z,5.33
2018-03-30T23:58:07.097Z,5.90
